Barclose, United Kingdom
Current Conditions -  °F | °C
As of 2:50 PM on Friday 19 Dec 2014 (Local Time) from EGOM Reporting Station
Broken Clouds Broken Clouds  
Wind Chill: 27°   Ceiling: 2800
Heat Index: 37°   Visibility: 6mi
Dew Point: 37°   Wind: 22mph
Humidity: 100%   Direction: 240°WSW
Pressure: 29.71"   Gusts: 39mph
Location:  54.94°N, 3°W
Report Text: EGOM 191450Z AUTO 24019G34KT 9999 FEW021/// BKN028/// 03/03 Q1006 RERA
Loading
Personal Weather Stations






























Interactive Weather Map New forecast layout! Learn more

10-Day Weather Forecast

Advertisements
Track Severe Weather on mobile